sensor_id;sensor_type;location;lat;lon;timestamp;pressure;altitude;pressure_sealevel;temperature;humidity
74881;BME280;63427;49.654;6.596;2022-10-16T00:01:47;99370.39;;;18.12;46.14
74881;BME280;63427;49.654;6.596;2022-10-16T00:04:13;99370.15;;;18.11;46.23
74881;BME280;63427;49.654;6.596;2022-10-16T00:06:38;99361.93;;;18.09;46.41
74881;BME280;63427;49.654;6.596;2022-10-16T00:09:04;99361.92;;;18.15;46.25
74881;BME280;63427;49.654;6.596;2022-10-16T00:11:30;99352.96;;;18.18;46.10
74881;BME280;63427;49.654;6.596;2022-10-16T00:13:56;99361.96;;;18.48;46.05
74881;BME280;63427;49.654;6.596;2022-10-16T00:16:19;99366.42;;;18.07;46.30
74881;BME280;63427;49.654;6.596;2022-10-16T00:18:45;99363.32;;;18.18;46.26
74881;BME280;63427;49.654;6.596;2022-10-16T00:21:12;99369.78;;;18.36;46.42
74881;BME280;63427;49.654;6.596;2022-10-16T00:23:36;99377.48;;;18.29;46.51
74881;BME280;63427;49.654;6.596;2022-10-16T00:26:02;99391.94;;;17.87;46.35
74881;BME280;63427;49.654;6.596;2022-10-16T00:28:26;99392.21;;;17.74;46.63
74881;BME280;63427;49.654;6.596;2022-10-16T00:30:52;99393.30;;;17.73;46.37
74881;BME280;63427;49.654;6.596;2022-10-16T00:33:16;99398.07;;;18.03;46.41
74881;BME280;63427;49.654;6.596;2022-10-16T00:35:41;99396.49;;;18.20;46.51
74881;BME280;63427;49.654;6.596;2022-10-16T00:38:07;99397.76;;;18.11;46.27
74881;BME280;63427;49.654;6.596;2022-10-16T00:40:32;99397.05;;;18.07;46.16
74881;BME280;63427;49.654;6.596;2022-10-16T00:42:57;99394.30;;;18.06;46.45
74881;BME280;63427;49.654;6.596;2022-10-16T00:45:23;99392.46;;;18.12;46.79
74881;BME280;63427;49.654;6.596;2022-10-16T00:47:49;99398.67;;;17.90;46.61
74881;BME280;63427;49.654;6.596;2022-10-16T00:50:21;99391.67;;;17.38;45.32
74881;BME280;63427;49.654;6.596;2022-10-16T00:52:43;99409.91;;;17.34;46.01
74881;BME280;63427;49.654;6.596;2022-10-16T00:55:06;99423.63;;;17.29;46.95
74881;BME280;63427;49.654;6.596;2022-10-16T00:57:29;99415.11;;;17.44;46.90
74881;BME280;63427;49.654;6.596;2022-10-16T00:59:55;99429.25;;;17.64;46.79
74881;BME280;63427;49.654;6.596;2022-10-16T01:02:20;99407.48;;;17.66;47.01
74881;BME280;63427;49.654;6.596;2022-10-16T01:04:48;99405.25;;;17.29;47.62
74881;BME280;63427;49.654;6.596;2022-10-16T01:07:14;99397.63;;;17.42;47.59
74881;BME280;63427;49.654;6.596;2022-10-16T01:09:45;99404.11;;;17.47;47.66
74881;BME280;63427;49.654;6.596;2022-10-16T01:12:06;99407.61;;;17.73;47.38
74881;BME280;63427;49.654;6.596;2022-10-16T01:14:32;99414.06;;;17.15;47.93
74881;BME280;63427;49.654;6.596;2022-10-16T01:16:56;99411.38;;;17.19;47.18
74881;BME280;63427;49.654;6.596;2022-10-16T01:19:24;99408.79;;;17.66;47.22
74881;BME280;63427;49.654;6.596;2022-10-16T01:21:46;99414.20;;;17.40;46.67
74881;BME280;63427;49.654;6.596;2022-10-16T01:24:14;99409.50;;;17.11;47.61
74881;BME280;63427;49.654;6.596;2022-10-16T01:26:47;99410.87;;;17.62;46.94
74881;BME280;63427;49.654;6.596;2022-10-16T01:29:04;99414.39;;;17.11;47.78
74881;BME280;63427;49.654;6.596;2022-10-16T01:31:27;99423.94;;;17.69;46.83
74881;BME280;63427;49.654;6.596;2022-10-16T01:33:54;99426.52;;;17.96;46.39
74881;BME280;63427;49.654;6.596;2022-10-16T01:36:17;99423.62;;;17.88;46.33
74881;BME280;63427;49.654;6.596;2022-10-16T01:38:40;99420.58;;;18.08;46.01
74881;BME280;63427;49.654;6.596;2022-10-16T01:41:09;99410.92;;;18.05;45.77
74881;BME280;63427;49.654;6.596;2022-10-16T01:43:34;99404.28;;;18.33;46.19
74881;BME280;63427;49.654;6.596;2022-10-16T01:45:55;99404.47;;;18.27;46.36
74881;BME280;63427;49.654;6.596;2022-10-16T01:48:21;99406.43;;;18.41;46.26
74881;BME280;63427;49.654;6.596;2022-10-16T01:50:56;99406.11;;;17.99;45.93
74881;BME280;63427;49.654;6.596;2022-10-16T01:53:12;99406.93;;;18.14;46.09
74881;BME280;63427;49.654;6.596;2022-10-16T01:55:40;99408.17;;;18.16;45.85
74881;BME280;63427;49.654;6.596;2022-10-16T01:58:03;99416.21;;;18.30;45.94
74881;BME280;63427;49.654;6.596;2022-10-16T02:00:27;99421.75;;;17.62;46.18
74881;BME280;63427;49.654;6.596;2022-10-16T02:02:53;99416.02;;;17.99;45.98
74881;BME280;63427;49.654;6.596;2022-10-16T02:05:21;99411.84;;;18.25;45.86
74881;BME280;63427;49.654;6.596;2022-10-16T02:07:43;99415.09;;;18.17;45.38
74881;BME280;63427;49.654;6.596;2022-10-16T02:10:08;99420.64;;;18.11;45.59
74881;BME280;63427;49.654;6.596;2022-10-16T02:12:36;99427.14;;;17.97;46.19
74881;BME280;63427;49.654;6.596;2022-10-16T02:14:59;99427.41;;;18.20;46.11
74881;BME280;63427;49.654;6.596;2022-10-16T02:17:24;99427.49;;;18.45;46.07
74881;BME280;63427;49.654;6.596;2022-10-16T02:19:51;99426.45;;;17.98;45.90
74881;BME280;63427;49.654;6.596;2022-10-16T02:22:17;99425.72;;;18.22;45.74
74881;BME280;63427;49.654;6.596;2022-10-16T02:24:45;99423.01;;;18.49;45.73
74881;BME280;63427;49.654;6.596;2022-10-16T02:27:08;99422.49;;;18.36;45.60
74881;BME280;63427;49.654;6.596;2022-10-16T02:29:30;99419.14;;;18.26;46.24
74881;BME280;63427;49.654;6.596;2022-10-16T02:32:00;99426.73;;;17.83;46.19
74881;BME280;63427;49.654;6.596;2022-10-16T02:34:21;99433.35;;;18.10;46.16
74881;BME280;63427;49.654;6.596;2022-10-16T02:36:47;99434.46;;;17.85;46.49
74881;BME280;63427;49.654;6.596;2022-10-16T02:39:11;99428.46;;;17.96;46.04
74881;BME280;63427;49.654;6.596;2022-10-16T02:41:37;99427.24;;;18.21;46.15
74881;BME280;63427;49.654;6.596;2022-10-16T02:44:02;99422.30;;;18.08;45.96
74881;BME280;63427;49.654;6.596;2022-10-16T02:46:27;99426.73;;;18.39;46.30
74881;BME280;63427;49.654;6.596;2022-10-16T02:48:52;99430.44;;;17.66;46.36
74881;BME280;63427;49.654;6.596;2022-10-16T02:51:17;99433.81;;;18.04;46.21
74881;BME280;63427;49.654;6.596;2022-10-16T02:53:43;99423.08;;;18.35;46.29
74881;BME280;63427;49.654;6.596;2022-10-16T02:56:08;99418.11;;;17.88;46.03
74881;BME280;63427;49.654;6.596;2022-10-16T02:58:33;99418.30;;;18.13;45.78
74881;BME280;63427;49.654;6.596;2022-10-16T03:00:58;99421.86;;;18.30;45.99
74881;BME280;63427;49.654;6.596;2022-10-16T03:03:24;99419.74;;;17.94;45.50
74881;BME280;63427;49.654;6.596;2022-10-16T03:05:49;99417.58;;;18.05;45.82
74881;BME280;63427;49.654;6.596;2022-10-16T03:08:14;99417.54;;;18.10;45.86
74881;BME280;63427;49.654;6.596;2022-10-16T03:10:40;99408.69;;;18.04;45.94
74881;BME280;63427;49.654;6.596;2022-10-16T03:13:05;99412.05;;;17.99;45.98
74881;BME280;63427;49.654;6.596;2022-10-16T03:15:30;99418.10;;;17.99;45.85
74881;BME280;63427;49.654;6.596;2022-10-16T03:17:57;99424.83;;;18.20;45.63
74881;BME280;63427;49.654;6.596;2022-10-16T03:20:21;99428.71;;;17.89;45.75
74881;BME280;63427;49.654;6.596;2022-10-16T03:22:46;99425.39;;;17.80;46.22
74881;BME280;63427;49.654;6.596;2022-10-16T03:25:11;99431.59;;;17.39;46.76
74881;BME280;63427;49.654;6.596;2022-10-16T03:27:36;99433.85;;;16.94;47.60
74881;BME280;63427;49.654;6.596;2022-10-16T03:30:02;99428.28;;;16.98;47.57
74881;BME280;63427;49.654;6.596;2022-10-16T03:32:27;99431.61;;;17.13;47.30
74881;BME280;63427;49.654;6.596;2022-10-16T03:34:52;99431.52;;;17.37;46.99
74881;BME280;63427;49.654;6.596;2022-10-16T03:37:17;99432.02;;;17.52;46.24
74881;BME280;63427;49.654;6.596;2022-10-16T03:39:43;99435.62;;;17.61;46.01
74881;BME280;63427;49.654;6.596;2022-10-16T03:42:08;99430.25;;;17.64;45.96
74881;BME280;63427;49.654;6.596;2022-10-16T03:44:33;99436.27;;;17.38;45.72
74881;BME280;63427;49.654;6.596;2022-10-16T03:46:59;99443.01;;;17.73;45.44
74881;BME280;63427;49.654;6.596;2022-10-16T03:49:24;99442.52;;;17.81;45.47
74881;BME280;63427;49.654;6.596;2022-10-16T03:51:49;99437.89;;;17.09;45.81
74881;BME280;63427;49.654;6.596;2022-10-16T03:54:14;99440.33;;;17.89;45.62
74881;BME280;63427;49.654;6.596;2022-10-16T03:56:40;99442.96;;;17.47;45.46
74881;BME280;63427;49.654;6.596;2022-10-16T03:59:05;99448.96;;;17.45;44.67
74881;BME280;63427;49.654;6.596;2022-10-16T04:01:31;99448.38;;;17.51;45.31
74881;BME280;63427;49.654;6.596;2022-10-16T04:03:56;99447.67;;;17.65;44.92
74881;BME280;63427;49.654;6.596;2022-10-16T04:06:21;99448.93;;;17.79;44.82
74881;BME280;63427;49.654;6.596;2022-10-16T04:08:47;99454.93;;;18.04;44.88
74881;BME280;63427;49.654;6.596;2022-10-16T04:11:12;99446.40;;;17.78;44.55
74881;BME280;63427;49.654;6.596;2022-10-16T04:13:37;99440.90;;;17.87;44.18
74881;BME280;63427;49.654;6.596;2022-10-16T04:16:03;99450.74;;;18.02;44.21
74881;BME280;63427;49.654;6.596;2022-10-16T04:18:28;99458.39;;;17.90;44.08
74881;BME280;63427;49.654;6.596;2022-10-16T04:20:53;99451.68;;;18.05;44.63
74881;BME280;63427;49.654;6.596;2022-10-16T04:23:18;99437.13;;;17.88;44.08
74881;BME280;63427;49.654;6.596;2022-10-16T04:25:45;99444.88;;;17.64;45.19
74881;BME280;63427;49.654;6.596;2022-10-16T04:28:09;99450.40;;;17.93;44.75
74881;BME280;63427;49.654;6.596;2022-10-16T04:30:34;99463.56;;;17.62;45.13
74881;BME280;63427;49.654;6.596;2022-10-16T04:32:59;99466.69;;;17.73;44.85
74881;BME280;63427;49.654;6.596;2022-10-16T04:35:25;99466.90;;;17.78;44.71
74881;BME280;63427;49.654;6.596;2022-10-16T04:37:50;99472.49;;;17.61;45.19
74881;BME280;63427;49.654;6.596;2022-10-16T04:40:16;99474.70;;;17.94;44.95
74881;BME280;63427;49.654;6.596;2022-10-16T04:42:40;99472.73;;;18.15;44.74
74881;BME280;63427;49.654;6.596;2022-10-16T04:45:07;99473.55;;;17.97;44.49
74881;BME280;63427;49.654;6.596;2022-10-16T04:47:31;99482.94;;;17.93;44.48
74881;BME280;63427;49.654;6.596;2022-10-16T04:49:56;99487.34;;;17.70;44.33
74881;BME280;63427;49.654;6.596;2022-10-16T04:52:21;99477.89;;;17.85;44.32
74881;BME280;63427;49.654;6.596;2022-10-16T04:54:47;99481.19;;;18.05;44.49
74881;BME280;63427;49.654;6.596;2022-10-16T04:57:12;99483.14;;;18.13;44.94
74881;BME280;63427;49.654;6.596;2022-10-16T04:59:37;99482.24;;;17.88;45.64
74881;BME280;63427;49.654;6.596;2022-10-16T05:02:03;99481.60;;;18.02;45.31
74881;BME280;63427;49.654;6.596;2022-10-16T05:04:28;99486.56;;;18.24;45.18
74881;BME280;63427;49.654;6.596;2022-10-16T05:06:53;99485.09;;;18.16;45.15
74881;BME280;63427;49.654;6.596;2022-10-16T05:09:18;99490.73;;;17.84;45.29
74881;BME280;63427;49.654;6.596;2022-10-16T05:11:44;99498.38;;;18.00;45.73
74881;BME280;63427;49.654;6.596;2022-10-16T05:14:09;99497.90;;;18.16;45.24
74881;BME280;63427;49.654;6.596;2022-10-16T05:16:34;99500.91;;;18.21;45.36
74881;BME280;63427;49.654;6.596;2022-10-16T05:18:59;99495.07;;;18.33;45.59
74881;BME280;63427;49.654;6.596;2022-10-16T05:21:25;99501.73;;;18.11;45.55
74881;BME280;63427;49.654;6.596;2022-10-16T05:23:50;99501.52;;;18.17;45.43
74881;BME280;63427;49.654;6.596;2022-10-16T05:26:16;99507.91;;;18.01;46.18
74881;BME280;63427;49.654;6.596;2022-10-16T05:28:40;99512.04;;;17.91;46.09
74881;BME280;63427;49.654;6.596;2022-10-16T05:31:06;99507.51;;;18.23;46.07
74881;BME280;63427;49.654;6.596;2022-10-16T05:33:31;99503.85;;;17.99;45.95
74881;BME280;63427;49.654;6.596;2022-10-16T05:35:56;99507.54;;;17.87;46.50
74881;BME280;63427;49.654;6.596;2022-10-16T05:38:22;99510.98;;;17.65;46.30
74881;BME280;63427;49.654;6.596;2022-10-16T05:40:51;99513.98;;;18.20;45.71
74881;BME280;63427;49.654;6.596;2022-10-16T05:43:12;99510.95;;;17.99;45.85
74881;BME280;63427;49.654;6.596;2022-10-16T05:45:38;99510.35;;;17.80;45.97
74881;BME280;63427;49.654;6.596;2022-10-16T05:48:03;99510.79;;;17.63;45.59
74881;BME280;63427;49.654;6.596;2022-10-16T05:50:28;99514.60;;;17.73;46.22
74881;BME280;63427;49.654;6.596;2022-10-16T05:52:53;99520.20;;;17.85;45.82
74881;BME280;63427;49.654;6.596;2022-10-16T05:55:18;99519.07;;;17.89;45.47
74881;BME280;63427;49.654;6.596;2022-10-16T05:57:44;99514.79;;;18.14;45.95
74881;BME280;63427;49.654;6.596;2022-10-16T06:00:10;99518.84;;;17.92;45.85
74881;BME280;63427;49.654;6.596;2022-10-16T06:02:34;99519.74;;;18.24;45.59
74881;BME280;63427;49.654;6.596;2022-10-16T06:04:59;99519.22;;;18.28;45.47
74881;BME280;63427;49.654;6.596;2022-10-16T06:07:25;99524.84;;;18.25;45.32
74881;BME280;63427;49.654;6.596;2022-10-16T06:09:50;99531.64;;;17.85;46.16
74881;BME280;63427;49.654;6.596;2022-10-16T06:12:15;99529.62;;;17.64;46.29
74881;BME280;63427;49.654;6.596;2022-10-16T06:14:40;99531.66;;;18.13;45.76
74881;BME280;63427;49.654;6.596;2022-10-16T06:17:06;99527.31;;;18.17;45.58
74881;BME280;63427;49.654;6.596;2022-10-16T06:19:31;99534.64;;;18.56;45.26
74881;BME280;63427;49.654;6.596;2022-10-16T06:21:56;99529.99;;;18.24;44.90
74881;BME280;63427;49.654;6.596;2022-10-16T06:24:21;99530.69;;;18.07;45.32
74881;BME280;63427;49.654;6.596;2022-10-16T06:26:47;99538.58;;;18.18;45.76
74881;BME280;63427;49.654;6.596;2022-10-16T06:29:12;99540.64;;;18.08;45.96
74881;BME280;63427;49.654;6.596;2022-10-16T06:31:37;99536.82;;;18.19;45.47
74881;BME280;63427;49.654;6.596;2022-10-16T06:34:03;99543.19;;;18.24;45.90
74881;BME280;63427;49.654;6.596;2022-10-16T06:36:28;99552.45;;;18.14;46.17
74881;BME280;63427;49.654;6.596;2022-10-16T06:38:54;99558.28;;;18.41;45.84
74881;BME280;63427;49.654;6.596;2022-10-16T06:41:20;99560.96;;;18.08;46.42
74881;BME280;63427;49.654;6.596;2022-10-16T06:43:44;99565.85;;;18.45;45.94
74881;BME280;63427;49.654;6.596;2022-10-16T06:46:10;99566.77;;;18.15;45.82
74881;BME280;63427;49.654;6.596;2022-10-16T06:48:34;99564.92;;;18.11;45.92
74881;BME280;63427;49.654;6.596;2022-10-16T06:51:01;99570.43;;;18.19;45.97
74881;BME280;63427;49.654;6.596;2022-10-16T06:53:26;99574.38;;;18.31;45.87
74881;BME280;63427;49.654;6.596;2022-10-16T06:55:50;99585.54;;;18.11;46.31
74881;BME280;63427;49.654;6.596;2022-10-16T06:58:15;99587.03;;;18.24;46.15
74881;BME280;63427;49.654;6.596;2022-10-16T07:00:41;99581.50;;;18.14;46.46
74881;BME280;63427;49.654;6.596;2022-10-16T07:03:06;99584.36;;;18.49;46.12
74881;BME280;63427;49.654;6.596;2022-10-16T07:05:31;99592.03;;;18.24;46.23
74881;BME280;63427;49.654;6.596;2022-10-16T07:07:57;99598.45;;;18.25;46.27
74881;BME280;63427;49.654;6.596;2022-10-16T07:10:22;99597.38;;;18.25;46.35
74881;BME280;63427;49.654;6.596;2022-10-16T07:12:47;99607.49;;;18.37;46.20
74881;BME280;63427;49.654;6.596;2022-10-16T07:15:12;99618.21;;;18.44;46.19
74881;BME280;63427;49.654;6.596;2022-10-16T07:17:38;99622.25;;;18.57;45.97
74881;BME280;63427;49.654;6.596;2022-10-16T07:20:03;99624.13;;;18.53;45.84
74881;BME280;63427;49.654;6.596;2022-10-16T07:22:29;99629.99;;;18.51;46.14
74881;BME280;63427;49.654;6.596;2022-10-16T07:24:54;99635.96;;;18.65;46.30
74881;BME280;63427;49.654;6.596;2022-10-16T07:27:19;99642.65;;;18.61;45.45
74881;BME280;63427;49.654;6.596;2022-10-16T07:29:44;99644.68;;;18.48;45.85
74881;BME280;63427;49.654;6.596;2022-10-16T07:32:10;99645.16;;;18.70;45.84
74881;BME280;63427;49.654;6.596;2022-10-16T07:34:35;99651.02;;;18.71;45.91
74881;BME280;63427;49.654;6.596;2022-10-16T07:37:00;99654.59;;;18.90;45.61
74881;BME280;63427;49.654;6.596;2022-10-16T07:39:25;99660.04;;;18.68;46.20
74881;BME280;63427;49.654;6.596;2022-10-16T07:41:51;99666.05;;;18.64;46.04
74881;BME280;63427;49.654;6.596;2022-10-16T07:44:16;99671.40;;;18.86;45.69
74881;BME280;63427;49.654;6.596;2022-10-16T07:46:41;99670.89;;;18.78;45.73
74881;BME280;63427;49.654;6.596;2022-10-16T07:49:06;99669.17;;;18.65;45.56
74881;BME280;63427;49.654;6.596;2022-10-16T07:51:32;99674.49;;;18.89;45.46
74881;BME280;63427;49.654;6.596;2022-10-16T07:53:57;99675.49;;;18.96;45.72
74881;BME280;63427;49.654;6.596;2022-10-16T07:56:22;99679.51;;;19.18;45.53
74881;BME280;63427;49.654;6.596;2022-10-16T07:58:48;99688.07;;;18.88;45.47
74881;BME280;63427;49.654;6.596;2022-10-16T08:01:14;99691.19;;;19.23;45.31
74881;BME280;63427;49.654;6.596;2022-10-16T08:03:38;99699.10;;;19.03;45.36
74881;BME280;63427;49.654;6.596;2022-10-16T08:06:04;99701.73;;;18.96;45.39
74881;BME280;63427;49.654;6.596;2022-10-16T08:08:28;99702.25;;;19.07;45.32
74881;BME280;63427;49.654;6.596;2022-10-16T08:10:53;99705.84;;;18.79;45.18
74881;BME280;63427;49.654;6.596;2022-10-16T08:13:19;99707.24;;;19.60;45.23
74881;BME280;63427;49.654;6.596;2022-10-16T08:15:44;99713.57;;;19.16;45.00
74881;BME280;63427;49.654;6.596;2022-10-16T08:18:10;99714.49;;;19.10;45.11
74881;BME280;63427;49.654;6.596;2022-10-16T08:20:34;99712.43;;;19.21;44.76
74881;BME280;63427;49.654;6.596;2022-10-16T08:23:00;99711.28;;;19.26;44.74
74881;BME280;63427;49.654;6.596;2022-10-16T08:25:25;99715.43;;;19.25;44.75
74881;BME280;63427;49.654;6.596;2022-10-16T08:27:50;99718.61;;;19.17;45.14
74881;BME280;63427;49.654;6.596;2022-10-16T08:30:16;99720.26;;;19.20;45.01
74881;BME280;63427;49.654;6.596;2022-10-16T08:32:40;99718.41;;;19.31;44.80
74881;BME280;63427;49.654;6.596;2022-10-16T08:35:06;99724.40;;;19.33;44.88
74881;BME280;63427;49.654;6.596;2022-10-16T08:37:32;99725.58;;;19.28;45.06
74881;BME280;63427;49.654;6.596;2022-10-16T08:39:56;99726.39;;;19.21;44.88
74881;BME280;63427;49.654;6.596;2022-10-16T08:42:32;99725.01;;;19.17;45.19
74881;BME280;63427;49.654;6.596;2022-10-16T08:45:04;99731.50;;;19.56;45.09
74881;BME280;63427;49.654;6.596;2022-10-16T08:47:17;99730.20;;;19.41;44.94
74881;BME280;63427;49.654;6.596;2022-10-16T08:49:38;99740.00;;;19.45;45.19
74881;BME280;63427;49.654;6.596;2022-10-16T08:52:02;99745.01;;;19.20;45.07
74881;BME280;63427;49.654;6.596;2022-10-16T08:54:31;99749.32;;;19.49;45.16
74881;BME280;63427;49.654;6.596;2022-10-16T08:56:54;99756.21;;;19.43;45.05
74881;BME280;63427;49.654;6.596;2022-10-16T08:59:19;99760.68;;;19.07;44.99
74881;BME280;63427;49.654;6.596;2022-10-16T09:01:46;99763.20;;;19.76;44.73
74881;BME280;63427;49.654;6.596;2022-10-16T09:06:43;99765.85;;;19.90;44.83
74881;BME280;63427;49.654;6.596;2022-10-16T09:09:17;99764.99;;;20.01;44.56
74881;BME280;63427;49.654;6.596;2022-10-16T09:11:33;99758.59;;;19.90;44.44
74881;BME280;63427;49.654;6.596;2022-10-16T09:13:54;99756.49;;;20.12;44.55
74881;BME280;63427;49.654;6.596;2022-10-16T09:16:19;99765.02;;;19.68;44.63
74881;BME280;63427;49.654;6.596;2022-10-16T09:18:45;99769.65;;;20.50;43.89
74881;BME280;63427;49.654;6.596;2022-10-16T09:21:11;99762.16;;;20.38;44.43
74881;BME280;63427;49.654;6.596;2022-10-16T09:23:34;99767.43;;;20.10;44.82
74881;BME280;63427;49.654;6.596;2022-10-16T09:25:57;99763.88;;;19.99;44.27
74881;BME280;63427;49.654;6.596;2022-10-16T09:28:21;99769.50;;;20.15;43.92
74881;BME280;63427;49.654;6.596;2022-10-16T09:30:47;99771.52;;;20.12;43.83
74881;BME280;63427;49.654;6.596;2022-10-16T09:33:12;99769.17;;;20.43;43.56
74881;BME280;63427;49.654;6.596;2022-10-16T09:35:39;99778.69;;;20.33;43.49
74881;BME280;63427;49.654;6.596;2022-10-16T09:38:02;99778.88;;;20.46;43.55
74881;BME280;63427;49.654;6.596;2022-10-16T09:40:30;99777.82;;;20.57;43.73
74881;BME280;63427;49.654;6.596;2022-10-16T09:42:57;99774.36;;;20.47;43.87
74881;BME280;63427;49.654;6.596;2022-10-16T09:45:23;99769.23;;;20.82;43.38
74881;BME280;63427;49.654;6.596;2022-10-16T09:47:44;99767.31;;;20.88;43.20
74881;BME280;63427;49.654;6.596;2022-10-16T09:52:33;99754.37;;;21.33;43.34
74881;BME280;63427;49.654;6.596;2022-10-16T09:54:59;99749.71;;;20.85;42.97
74881;BME280;63427;49.654;6.596;2022-10-16T09:57:24;99743.48;;;21.11;41.67
74881;BME280;63427;49.654;6.596;2022-10-16T09:59:50;99742.05;;;21.30;41.65
74881;BME280;63427;49.654;6.596;2022-10-16T10:02:14;99736.72;;;21.35;41.69
74881;BME280;63427;49.654;6.596;2022-10-16T10:04:40;99739.44;;;21.33;42.09
74881;BME280;63427;49.654;6.596;2022-10-16T10:07:04;99742.82;;;21.73;41.69
74881;BME280;63427;49.654;6.596;2022-10-16T10:09:32;99745.89;;;21.52;41.72
74881;BME280;63427;49.654;6.596;2022-10-16T10:11:55;99749.31;;;21.68;41.50
74881;BME280;63427;49.654;6.596;2022-10-16T10:14:23;99753.14;;;21.90;40.98
74881;BME280;63427;49.654;6.596;2022-10-16T10:16:44;99759.21;;;21.59;41.23
74881;BME280;63427;49.654;6.596;2022-10-16T10:19:14;99759.85;;;22.21;40.45
74881;BME280;63427;49.654;6.596;2022-10-16T10:21:37;99757.58;;;22.15;41.02
74881;BME280;63427;49.654;6.596;2022-10-16T10:23:59;99758.07;;;21.90;41.05
74881;BME280;63427;49.654;6.596;2022-10-16T10:26:27;99758.96;;;21.83;40.11
74881;BME280;63427;49.654;6.596;2022-10-16T10:28:55;99756.23;;;22.26;39.96
74881;BME280;63427;49.654;6.596;2022-10-16T10:31:20;99760.07;;;22.23;39.19
74881;BME280;63427;49.654;6.596;2022-10-16T10:33:45;99758.41;;;22.46;39.05
74881;BME280;63427;49.654;6.596;2022-10-16T10:36:16;99758.30;;;22.40;39.56
74881;BME280;63427;49.654;6.596;2022-10-16T10:38:36;99756.36;;;21.85;39.56
74881;BME280;63427;49.654;6.596;2022-10-16T10:41:03;99759.75;;;22.00;39.21
74881;BME280;63427;49.654;6.596;2022-10-16T10:43:32;99767.76;;;22.08;39.05
74881;BME280;63427;49.654;6.596;2022-10-16T10:45:47;99773.56;;;21.79;39.20
74881;BME280;63427;49.654;6.596;2022-10-16T10:48:20;99773.09;;;22.07;39.63
74881;BME280;63427;49.654;6.596;2022-10-16T10:50:41;99778.02;;;22.21;39.84
74881;BME280;63427;49.654;6.596;2022-10-16T10:53:06;99780.38;;;22.04;39.28
74881;BME280;63427;49.654;6.596;2022-10-16T10:55:36;99774.73;;;22.05;39.53
74881;BME280;63427;49.654;6.596;2022-10-16T10:58:10;99773.61;;;22.05;39.26
74881;BME280;63427;49.654;6.596;2022-10-16T11:00:21;99771.10;;;22.05;39.63
74881;BME280;63427;49.654;6.596;2022-10-16T11:02:44;99773.23;;;22.12;39.27
74881;BME280;63427;49.654;6.596;2022-10-16T11:05:22;99775.24;;;22.58;38.45
74881;BME280;63427;49.654;6.596;2022-10-16T11:07:34;99774.97;;;22.37;38.48
74881;BME280;63427;49.654;6.596;2022-10-16T11:09:59;99777.74;;;22.19;38.85
74881;BME280;63427;49.654;6.596;2022-10-16T11:12:27;99778.26;;;22.24;38.91
74881;BME280;63427;49.654;6.596;2022-10-16T11:14:50;99775.45;;;22.18;38.91
74881;BME280;63427;49.654;6.596;2022-10-16T11:17:14;99776.13;;;22.21;39.12
74881;BME280;63427;49.654;6.596;2022-10-16T11:19:41;99776.99;;;22.72;39.29
74881;BME280;63427;49.654;6.596;2022-10-16T11:22:09;99780.80;;;22.25;39.71
74881;BME280;63427;49.654;6.596;2022-10-16T11:24:36;99779.93;;;22.04;39.42
74881;BME280;63427;49.654;6.596;2022-10-16T11:26:55;99781.54;;;22.20;39.64
74881;BME280;63427;49.654;6.596;2022-10-16T11:29:23;99780.81;;;22.07;39.15
74881;BME280;63427;49.654;6.596;2022-10-16T11:31:48;99777.31;;;22.19;38.82
74881;BME280;63427;49.654;6.596;2022-10-16T11:34:13;99772.25;;;22.50;39.54
74881;BME280;63427;49.654;6.596;2022-10-16T11:36:38;99765.02;;;22.29;39.50
74881;BME280;63427;49.654;6.596;2022-10-16T11:39:02;99761.89;;;22.49;39.74
74881;BME280;63427;49.654;6.596;2022-10-16T11:41:32;99755.14;;;22.60;38.99
74881;BME280;63427;49.654;6.596;2022-10-16T11:44:06;99752.70;;;22.72;39.11
74881;BME280;63427;49.654;6.596;2022-10-16T11:46:16;99753.59;;;22.69;38.49
74881;BME280;63427;49.654;6.596;2022-10-16T11:48:41;99754.96;;;22.77;38.81
74881;BME280;63427;49.654;6.596;2022-10-16T11:51:16;99754.49;;;22.98;38.75
74881;BME280;63427;49.654;6.596;2022-10-16T11:53:39;99755.85;;;22.72;39.15
74881;BME280;63427;49.654;6.596;2022-10-16T11:55:53;99755.87;;;23.13;38.82
74881;BME280;63427;49.654;6.596;2022-10-16T11:58:24;99753.96;;;22.66;38.59
74881;BME280;63427;49.654;6.596;2022-10-16T12:00:47;99755.20;;;23.16;39.35
74881;BME280;63427;49.654;6.596;2022-10-16T12:03:17;99760.86;;;22.71;38.91
74881;BME280;63427;49.654;6.596;2022-10-16T12:05:46;99763.25;;;23.01;38.79
74881;BME280;63427;49.654;6.596;2022-10-16T12:08:07;99761.37;;;22.62;39.10
74881;BME280;63427;49.654;6.596;2022-10-16T12:10:27;99761.09;;;23.15;39.43
74881;BME280;63427;49.654;6.596;2022-10-16T12:12:49;99761.58;;;22.72;38.72
74881;BME280;63427;49.654;6.596;2022-10-16T12:15:23;99759.40;;;23.26;38.66
74881;BME280;63427;49.654;6.596;2022-10-16T12:17:40;99763.03;;;23.08;38.83
74881;BME280;63427;49.654;6.596;2022-10-16T12:24:57;99762.32;;;23.19;38.93
74881;BME280;63427;49.654;6.596;2022-10-16T12:27:25;99761.10;;;23.05;38.29
74881;BME280;63427;49.654;6.596;2022-10-16T12:29:45;99766.21;;;23.01;38.54
74881;BME280;63427;49.654;6.596;2022-10-16T12:32:22;99769.53;;;23.06;38.51
74881;BME280;63427;49.654;6.596;2022-10-16T12:34:44;99765.77;;;23.03;38.64
74881;BME280;63427;49.654;6.596;2022-10-16T12:37:14;99759.93;;;23.37;37.87
74881;BME280;63427;49.654;6.596;2022-10-16T12:39:40;99760.52;;;23.63;38.71
74881;BME280;63427;49.654;6.596;2022-10-16T12:44:23;99758.44;;;23.60;38.80
74881;BME280;63427;49.654;6.596;2022-10-16T12:46:42;99758.52;;;23.58;37.87
74881;BME280;63427;49.654;6.596;2022-10-16T12:51:41;99754.59;;;23.70;37.11
74881;BME280;63427;49.654;6.596;2022-10-16T12:56:31;99756.48;;;23.87;36.59
74881;BME280;63427;49.654;6.596;2022-10-16T12:59:12;99750.58;;;23.79;37.13
74881;BME280;63427;49.654;6.596;2022-10-16T13:01:33;99746.84;;;24.11;37.18
74881;BME280;63427;49.654;6.596;2022-10-16T13:03:58;99744.62;;;24.04;36.59
74881;BME280;63427;49.654;6.596;2022-10-16T13:06:19;99743.17;;;23.96;36.51